Terminal Aerodrome Forecast
Issued by NWS Shreveport, LA

Home | Current Version | Previous Version | Text Only | Print | Product List | Glossary On
Versions: 1 2 3 4 5 6 7 8 9 10 11 12 13 14 15 16 17 18 19 20
000
FTUS44 KSHV 181700
TAFLFK
TAF
KLFK 181739Z 1818/1918 16005KT 6SM -RA OVC009
     FM181900 14005KT P6SM VCTS SCT010 BKN035CB
      TEMPO 1819/1823 2SM +TSRA OVC020CB
     FM190100 14003KT P6SM BKN040
     FM190300 VRB03KT 6SM BR BKN007
     FM190500 00000KT 3SM BR OVC004
      TEMPO 1908/1912 1/2SM FG VV002
     FM191500 09004KT 5SM BR SCT004 OVC009
     FM191600 11005KT P6SM OVC011=

USA.gov is the U.S. government's official web portal to all federal, state and local government web resources and services.